createdAt,value
2023-01-30T00:01:13.412Z,1024.1
2023-01-30T00:03:06.071Z,1024.1
2023-01-30T00:05:07.104Z,1024.1
2023-01-30T00:07:06.512Z,1024.1
2023-01-30T00:09:06.141Z,1024.2
2023-01-30T00:11:06.077Z,1024.2
2023-01-30T00:13:06.244Z,1024.3
2023-01-30T00:15:06.875Z,1024.3
2023-01-30T00:17:07.167Z,1024.3
2023-01-30T00:19:07.217Z,1024.3
2023-01-30T00:21:06.058Z,1024.4
2023-01-30T00:23:06.097Z,1024.4
2023-01-30T00:25:06.163Z,1024.4
2023-01-30T00:27:07.972Z,1024.5
2023-01-30T00:29:06.138Z,1024.5
2023-01-30T00:31:06.172Z,1024.5
2023-01-30T00:33:06.094Z,1024.5
2023-01-30T00:35:06.028Z,1024.5
2023-01-30T00:37:08.666Z,1024.4
2023-01-30T00:39:06.556Z,1024.4
2023-01-30T00:41:06.939Z,1024.4
2023-01-30T00:43:07.639Z,1024.4
2023-01-30T00:45:06.044Z,1024.4
2023-01-30T00:47:06.555Z,1024.3
2023-01-30T00:49:08.320Z,1024.3
2023-01-30T00:51:06.062Z,1024.3
2023-01-30T00:53:06.027Z,1024.3
2023-01-30T00:55:06.021Z,1024.3
2023-01-30T00:57:06.030Z,1024.2
2023-01-30T00:59:06.036Z,1024.2
2023-01-30T01:01:06.870Z,1024.2
2023-01-30T01:03:06.134Z,1024.1
2023-01-30T01:05:06.027Z,1024.1
2023-01-30T01:07:07.171Z,1024.2
2023-01-30T01:09:06.028Z,1024.2
2023-01-30T01:11:06.101Z,1024.2
2023-01-30T01:13:09.036Z,1024.2
2023-01-30T01:15:06.560Z,1024.3
2023-01-30T01:17:06.113Z,1024.3
2023-01-30T01:19:09.899Z,1024.3
2023-01-30T01:21:06.095Z,1024.3
2023-01-30T01:23:06.106Z,1024.4
2023-01-30T01:25:08.010Z,1024.4
2023-01-30T01:27:05.985Z,1024.4
2023-01-30T01:29:06.027Z,1024.3
2023-01-30T01:31:06.782Z,1024.3
2023-01-30T01:33:06.004Z,1024.3
2023-01-30T01:35:06.027Z,1024.3
2023-01-30T01:37:06.015Z,1024.3
2023-01-30T01:39:05.941Z,1024.4
2023-01-30T01:41:06.561Z,1024.4
2023-01-30T01:43:07.345Z,1024.4
2023-01-30T01:45:06.194Z,1024.5
2023-01-30T01:47:05.930Z,1024.5
2023-01-30T01:49:05.947Z,1024.5
2023-01-30T01:51:06.731Z,1024.5
2023-01-30T01:53:05.947Z,1024.6
2023-01-30T01:54:46.171Z,1024.6
2023-01-30T01:55:06.034Z,1024.6
2023-01-30T01:57:06.135Z,1024.6
2023-01-30T01:59:07.438Z,1024.6
2023-01-30T02:01:05.941Z,1024.7
2023-01-30T02:03:05.962Z,1024.7
2023-01-30T02:05:06.049Z,1024.8
2023-01-30T02:07:07.057Z,1024.8
2023-01-30T02:09:09.813Z,1024.8
2023-01-30T02:11:18.192Z,1024.8
2023-01-30T02:13:06.023Z,1024.8
2023-01-30T02:15:05.858Z,1024.8
2023-01-30T02:17:07.181Z,1024.7
2023-01-30T02:19:05.953Z,1024.7
2023-01-30T02:21:06.021Z,1024.7
2023-01-30T02:23:06.611Z,1024.7
2023-01-30T02:25:06.029Z,1024.8
2023-01-30T02:27:07.439Z,1024.9
2023-01-30T02:29:20.773Z,1025
2023-01-30T02:31:06.025Z,1025
2023-01-30T02:33:05.863Z,1025
2023-01-30T02:35:07.188Z,1025
2023-01-30T02:37:07.943Z,1025.1
2023-01-30T02:39:05.978Z,1025.1
2023-01-30T02:41:06.475Z,1025.1
2023-01-30T02:43:05.896Z,1025.2
2023-01-30T02:45:05.974Z,1025.3
2023-01-30T02:47:06.828Z,1025.2
2023-01-30T02:49:05.891Z,1025.2
2023-01-30T02:51:05.977Z,1025.1
2023-01-30T02:53:07.205Z,1025.1
2023-01-30T02:55:05.860Z,1025.2
2023-01-30T02:57:06.610Z,1025.2
2023-01-30T02:59:16.331Z,1025.3
2023-01-30T03:01:10.386Z,1025.3
2023-01-30T03:03:05.887Z,1025.3
2023-01-30T03:05:05.852Z,1025.2
2023-01-30T03:07:05.840Z,1025.2
2023-01-30T03:09:06.009Z,1025.2
2023-01-30T03:11:05.813Z,1025.2
2023-01-30T03:13:07.296Z,1025.2
2023-01-30T03:15:05.853Z,1025.2
2023-01-30T03:17:05.822Z,1025.2
2023-01-30T03:19:05.823Z,1025.2
2023-01-30T03:21:07.151Z,1025.2
2023-01-30T03:23:05.837Z,1025.1
2023-01-30T03:25:05.889Z,1025.2
2023-01-30T03:27:05.795Z,1025.1
2023-01-30T03:29:05.854Z,1025.1
2023-01-30T03:31:06.003Z,1025.1
2023-01-30T03:33:05.830Z,1025.1
2023-01-30T03:35:05.834Z,1025.2
2023-01-30T03:37:05.944Z,1025.1
2023-01-30T03:39:05.862Z,1025.1
2023-01-30T03:41:06.001Z,1025.2
2023-01-30T03:43:05.796Z,1025.2
2023-01-30T03:45:09.470Z,1025.1
2023-01-30T03:47:05.734Z,1025.2
2023-01-30T03:49:06.271Z,1025.1
2023-01-30T03:51:05.803Z,1025.2
2023-01-30T03:53:05.743Z,1025.2
2023-01-30T03:55:05.776Z,1025.2
2023-01-30T03:57:05.832Z,1025.1
2023-01-30T03:59:05.779Z,1025.2
2023-01-30T04:01:05.932Z,1025.2
2023-01-30T04:03:05.757Z,1025.2
2023-01-30T04:05:05.753Z,1025.2
2023-01-30T04:07:06.974Z,1025.2
2023-01-30T04:09:05.848Z,1025.2
2023-01-30T04:11:05.893Z,1025.2
2023-01-30T04:13:05.899Z,1025.3
2023-01-30T04:15:05.840Z,1025.2
2023-01-30T04:17:08.037Z,1025.2
2023-01-30T04:19:05.782Z,1025.2
2023-01-30T04:21:06.612Z,1025.2
2023-01-30T04:23:05.835Z,1025.2
2023-01-30T04:25:06.187Z,1025.1
2023-01-30T04:27:05.762Z,1025.1
2023-01-30T04:29:05.854Z,1025.1
2023-01-30T04:31:06.454Z,1025.1
2023-01-30T04:33:05.799Z,1025
2023-01-30T04:35:06.580Z,1025
2023-01-30T04:37:05.749Z,1025
2023-01-30T04:39:05.780Z,1025
2023-01-30T04:41:07.125Z,1025
2023-01-30T04:43:07.027Z,1025
2023-01-30T04:45:05.754Z,1025
2023-01-30T04:47:05.736Z,1025.1
2023-01-30T04:49:05.693Z,1025.1
2023-01-30T04:51:05.694Z,1025.2
2023-01-30T04:53:05.666Z,1025.2
2023-01-30T04:55:05.661Z,1025.1
2023-01-30T04:57:05.718Z,1025.1
2023-01-30T04:59:06.549Z,1025
2023-01-30T05:01:05.995Z,1025
2023-01-30T05:03:05.707Z,1025
2023-01-30T05:05:05.719Z,1024.9
2023-01-30T05:07:05.817Z,1024.9
2023-01-30T05:09:05.933Z,1024.8
2023-01-30T05:11:05.692Z,1024.8
2023-01-30T05:13:05.722Z,1024.7
2023-01-30T05:15:07.106Z,1024.6
2023-01-30T05:17:05.917Z,1024.6
2023-01-30T05:19:08.359Z,1024.5
2023-01-30T05:21:05.768Z,1024.5
2023-01-30T05:23:05.804Z,1024.5
2023-01-30T05:25:09.864Z,1024.5
2023-01-30T05:27:05.674Z,1024.4
2023-01-30T05:29:05.668Z,1024.4
2023-01-30T05:31:05.811Z,1024.4
2023-01-30T05:33:08.143Z,1024.3
2023-01-30T05:35:05.668Z,1024.3
2023-01-30T05:37:06.427Z,1024.3
2023-01-30T05:39:05.833Z,1024.3
2023-01-30T05:41:11.094Z,1024.3
2023-01-30T05:43:05.603Z,1024.2
2023-01-30T05:45:05.794Z,1024.2
2023-01-30T05:47:05.682Z,1024.2
2023-01-30T05:49:05.778Z,1024.2
2023-01-30T05:51:08.246Z,1024.1
2023-01-30T05:53:05.684Z,1024.1
2023-01-30T05:55:05.597Z,1024.1
2023-01-30T05:57:05.623Z,1024.1
2023-01-30T05:59:06.468Z,1024.1
2023-01-30T06:01:05.704Z,1024.1
2023-01-30T06:03:09.984Z,1024.1
2023-01-30T06:05:05.609Z,1024
2023-01-30T06:07:06.926Z,1024
2023-01-30T06:09:05.589Z,1024
2023-01-30T06:11:05.721Z,1024.1
2023-01-30T06:13:05.713Z,1024.1
2023-01-30T06:15:05.587Z,1024.1
2023-01-30T06:17:05.684Z,1024.1
2023-01-30T06:19:05.727Z,1024.1
2023-01-30T06:21:07.827Z,1024.2
2023-01-30T06:23:05.895Z,1024.2
2023-01-30T06:25:05.616Z,1024.2
2023-01-30T06:27:05.700Z,1024.1
2023-01-30T06:29:05.625Z,1024.2
2023-01-30T06:31:05.710Z,1024.2
2023-01-30T06:33:05.562Z,1024.1
2023-01-30T06:35:05.612Z,1024.1
2023-01-30T06:37:06.326Z,1024.1
2023-01-30T06:39:05.549Z,1024.1
2023-01-30T06:41:05.541Z,1024.1
2023-01-30T06:43:07.902Z,1024.1
2023-01-30T06:45:07.915Z,1024.1
2023-01-30T06:47:05.549Z,1024.1
2023-01-30T06:49:05.605Z,1024
2023-01-30T06:51:05.628Z,1024
2023-01-30T06:53:05.582Z,1024.1
2023-01-30T06:55:05.561Z,1024.1
2023-01-30T06:57:05.528Z,1024.1
2023-01-30T06:59:05.702Z,1024
2023-01-30T07:01:06.895Z,1023.9
2023-01-30T07:03:05.549Z,1024
2023-01-30T07:05:05.541Z,1024
2023-01-30T07:07:06.966Z,1024
2023-01-30T07:09:05.490Z,1024.1
2023-01-30T07:11:05.510Z,1024.1
2023-01-30T07:13:05.534Z,1024
2023-01-30T07:15:05.520Z,1024
2023-01-30T07:17:05.568Z,1023.9
2023-01-30T07:19:05.539Z,1023.9
2023-01-30T07:21:07.718Z,1023.9
2023-01-30T07:23:05.501Z,1023.9
2023-01-30T07:25:05.715Z,1023.9
2023-01-30T07:27:05.469Z,1023.9
2023-01-30T07:29:05.531Z,1024
2023-01-30T07:31:05.565Z,1024
2023-01-30T07:33:05.667Z,1024
2023-01-30T07:35:06.042Z,1024
2023-01-30T07:37:05.503Z,1023.9
2023-01-30T07:39:05.489Z,1023.9
2023-01-30T07:41:05.515Z,1023.9
2023-01-30T07:43:05.522Z,1023.9
2023-01-30T07:45:05.513Z,1023.8
2023-01-30T07:47:05.547Z,1023.8
2023-01-30T07:49:05.461Z,1023.8
2023-01-30T07:51:06.928Z,1023.9
2023-01-30T07:53:05.451Z,1023.9
2023-01-30T07:55:05.622Z,1023.9
2023-01-30T07:57:05.477Z,1023.8
2023-01-30T07:59:05.668Z,1023.8
2023-01-30T08:01:05.720Z,1023.8
2023-01-30T08:03:06.503Z,1023.8
2023-01-30T08:05:06.298Z,1023.8
2023-01-30T08:07:05.478Z,1023.7
2023-01-30T08:09:05.444Z,1023.7
2023-01-30T08:11:05.503Z,1023.6
2023-01-30T08:13:05.441Z,1023.7
2023-01-30T08:15:05.486Z,1023.6
2023-01-30T08:17:05.432Z,1023.5
2023-01-30T08:19:06.004Z,1023.5
2023-01-30T08:21:05.446Z,1023.4
2023-01-30T08:23:06.677Z,1023.4
2023-01-30T08:25:05.419Z,1023.4
2023-01-30T08:27:05.564Z,1023.4
2023-01-30T08:29:05.395Z,1023.4
2023-01-30T08:31:05.516Z,1023.4
2023-01-30T08:33:05.465Z,1023.4
2023-01-30T08:35:05.440Z,1023.3
2023-01-30T08:37:05.446Z,1023.2
2023-01-30T08:39:05.435Z,1023.2
2023-01-30T08:41:05.504Z,1023.2
2023-01-30T08:43:05.436Z,1023.2
2023-01-30T08:45:06.441Z,1023.2
2023-01-30T08:47:08.494Z,1023.2
2023-01-30T08:49:05.447Z,1023.2
2023-01-30T08:51:05.416Z,1023.2
2023-01-30T08:53:05.446Z,1023.2
2023-01-30T08:55:05.465Z,1023.2
2023-01-30T08:57:05.495Z,1023.2
2023-01-30T08:59:05.490Z,1023.1
2023-01-30T09:01:05.433Z,1023.1
2023-01-30T09:03:05.387Z,1023
2023-01-30T09:05:05.496Z,1023
2023-01-30T09:07:06.695Z,1023
2023-01-30T09:09:05.374Z,1023.1
2023-01-30T09:11:05.397Z,1023.1
2023-01-30T09:13:05.548Z,1023.1
2023-01-30T09:15:05.426Z,1023.1
2023-01-30T09:17:05.394Z,1023.1
2023-01-30T09:19:05.368Z,1023.2
2023-01-30T09:21:09.698Z,1023.1
2023-01-30T09:23:05.410Z,1023.1
2023-01-30T09:25:05.437Z,1023.1
2023-01-30T09:27:05.437Z,1023.1
2023-01-30T09:29:08.266Z,1023.1
2023-01-30T09:31:05.467Z,1023
2023-01-30T09:33:05.562Z,1023
2023-01-30T09:35:05.383Z,1023
2023-01-30T09:37:05.358Z,1023
2023-01-30T09:39:05.531Z,1023
2023-01-30T09:41:05.349Z,1023
2023-01-30T09:43:05.357Z,1023.1
2023-01-30T09:45:05.339Z,1023.1
2023-01-30T09:47:05.318Z,1023.1
2023-01-30T09:49:05.354Z,1023.2
2023-01-30T09:51:07.457Z,1023.2
2023-01-30T09:53:07.714Z,1023.2
2023-01-30T09:55:05.326Z,1023.2
2023-01-30T09:57:05.322Z,1023.2
2023-01-30T09:59:05.444Z,1023.2
2023-01-30T10:01:06.780Z,1023.2
2023-01-30T10:03:05.481Z,1023.3
2023-01-30T10:05:05.346Z,1023.2
2023-01-30T10:07:05.352Z,1023.2
2023-01-30T10:09:05.367Z,1023.2
2023-01-30T10:11:09.799Z,1023.2
2023-01-30T10:13:05.389Z,1023.3
2023-01-30T10:15:07.420Z,1023.3
2023-01-30T10:17:07.977Z,1023.4
2023-01-30T10:19:05.275Z,1023.5
2023-01-30T10:21:05.305Z,1023.6
2023-01-30T10:23:07.344Z,1023.6
2023-01-30T10:25:05.288Z,1023.6
2023-01-30T10:27:05.315Z,1023.7
2023-01-30T10:29:07.514Z,1023.7
2023-01-30T10:31:07.849Z,1023.7
2023-01-30T10:33:09.914Z,1023.7
2023-01-30T10:35:05.387Z,1023.7
2023-01-30T10:37:06.060Z,1023.8
2023-01-30T10:39:05.311Z,1023.9
2023-01-30T10:41:05.386Z,1023.9
2023-01-30T10:43:05.269Z,1023.9
2023-01-30T10:45:05.474Z,1024
2023-01-30T10:47:05.309Z,1024
2023-01-30T10:49:05.287Z,1024.1
2023-01-30T10:51:05.272Z,1024.1
2023-01-30T10:53:05.320Z,1024.2
2023-01-30T10:55:05.283Z,1024.1
2023-01-30T10:57:05.290Z,1024.1
2023-01-30T10:59:06.552Z,1024.2
2023-01-30T11:01:05.307Z,1024.2
2023-01-30T11:03:05.329Z,1024.1
2023-01-30T11:05:05.249Z,1024.1
2023-01-30T11:07:05.323Z,1024.2
2023-01-30T11:09:06.561Z,1024.2
2023-01-30T11:10:58.386Z,1024.2
2023-01-30T11:13:06.841Z,1024.1
2023-01-30T11:15:05.238Z,1024
2023-01-30T11:17:05.282Z,1024
2023-01-30T11:19:21.470Z,1024
2023-01-30T11:21:05.254Z,1024
2023-01-30T11:23:15.746Z,1024
2023-01-30T11:25:05.194Z,1024
2023-01-30T11:27:05.232Z,1023.9
2023-01-30T11:29:05.221Z,1023.9
2023-01-30T11:31:06.378Z,1023.9
2023-01-30T11:33:07.788Z,1023.8
2023-01-30T11:35:05.195Z,1023.8
2023-01-30T11:37:05.170Z,1023.8
2023-01-30T11:39:05.285Z,1023.7
2023-01-30T11:41:05.240Z,1023.7
2023-01-30T11:43:05.185Z,1023.7
2023-01-30T11:45:16.976Z,1023.8
2023-01-30T11:47:05.232Z,1023.7
2023-01-30T11:49:11.227Z,1023.7
2023-01-30T11:51:05.195Z,1023.6
2023-01-30T11:53:05.223Z,1023.6
2023-01-30T11:55:05.939Z,1023.6
2023-01-30T11:57:05.243Z,1023.6
2023-01-30T11:59:05.158Z,1023.6
2023-01-30T12:01:05.432Z,1023.6
2023-01-30T12:03:06.022Z,1023.5
2023-01-30T12:05:05.181Z,1023.5
2023-01-30T12:07:05.278Z,1023.5
2023-01-30T12:09:09.548Z,1023.6
2023-01-30T12:11:07.350Z,1023.8
2023-01-30T12:13:08.817Z,1023.8
2023-01-30T12:15:35.771Z,1023.7
2023-01-30T12:17:34.402Z,1023.6
2023-01-30T12:19:05.295Z,1023.7
2023-01-30T12:21:27.623Z,1023.6
2023-01-30T12:22:00.714Z,1023.6
2023-01-30T12:24:44.022Z,1023.6
2023-01-30T12:26:24.658Z,1023.5
2023-01-30T12:27:18.861Z,1023.5
2023-01-30T12:28:05.700Z,1023.6
2023-01-30T12:30:14.524Z,1023.6
2023-01-30T12:32:11.823Z,1023.7
2023-01-30T12:34:24.212Z,1023.6
2023-01-30T12:37:06.715Z,1023.4
2023-01-30T12:37:16.062Z,1023.4
2023-01-30T12:39:16.032Z,1023.4
2023-01-30T12:41:15.949Z,1023.4
2023-01-30T12:43:15.894Z,1023.4
2023-01-30T12:45:27.872Z,1023.4
2023-01-30T12:47:22.279Z,1023.4
2023-01-30T12:49:17.332Z,1023.5
2023-01-30T12:52:13.338Z,1023.6
2023-01-30T12:53:17.269Z,1023.5
2023-01-30T12:55:15.924Z,1023.5
2023-01-30T12:57:15.896Z,1023.4
2023-01-30T12:59:15.915Z,1023.3
2023-01-30T13:01:16.098Z,1023.3
2023-01-30T13:03:26.215Z,1023.3
2023-01-30T13:05:15.967Z,1023.4
2023-01-30T13:07:15.962Z,1023.5
2023-01-30T13:09:43.349Z,1023.5
2023-01-30T13:11:16.100Z,1023.6
2023-01-30T13:13:43.232Z,1023.6
2023-01-30T13:15:16.946Z,1023.6
2023-01-30T13:17:17.087Z,1023.6
2023-01-30T13:19:15.828Z,1023.4
2023-01-30T13:21:16.961Z,1023.3
2023-01-30T13:23:15.864Z,1023.4
2023-01-30T13:25:15.912Z,1023.4
2023-01-30T13:27:38.581Z,1023.4
2023-01-30T13:29:20.037Z,1023.4
2023-01-30T13:31:40.445Z,1023.4
2023-01-30T13:33:15.936Z,1023.5
2023-01-30T13:35:21.494Z,1023.5
2023-01-30T13:37:26.040Z,1023.6
2023-01-30T13:39:26.461Z,1023.6
2023-01-30T13:41:15.954Z,1023.6
2023-01-30T13:43:15.796Z,1023.6
2023-01-30T13:45:15.965Z,1023.7
2023-01-30T13:47:16.103Z,1023.8
2023-01-30T13:49:48.522Z,1023.9
2023-01-30T13:51:20.689Z,1023.9
2023-01-30T13:53:15.919Z,1023.8
2023-01-30T13:55:30.139Z,1023.8
2023-01-30T13:56:50.183Z,1023.8
2023-01-30T13:57:17.052Z,1024
2023-01-30T13:59:15.846Z,1023.9
2023-01-30T14:01:16.136Z,1023.8
2023-01-30T14:03:15.928Z,1023.8
2023-01-30T14:05:22.143Z,1023.7
2023-01-30T14:07:15.980Z,1023.6
2023-01-30T14:09:16.000Z,1023.5
2023-01-30T14:11:53.518Z,1023.5
2023-01-30T14:13:05.731Z,1023.6
2023-01-30T14:14:57.936Z,1023.6
2023-01-30T14:16:59.570Z,1023.8
2023-01-30T14:18:58.802Z,1023.7
2023-01-30T14:21:23.400Z,1023.7
2023-01-30T14:23:26.173Z,1023.7
2023-01-30T14:24:58.540Z,1023.8
2023-01-30T14:26:56.707Z,1023.8
2023-01-30T14:28:56.741Z,1023.8
2023-01-30T14:31:23.640Z,1023.8
2023-01-30T14:32:57.740Z,1023.7
2023-01-30T14:35:19.516Z,1023.6
2023-01-30T14:36:56.594Z,1023.6
2023-01-30T14:38:56.772Z,1023.6
2023-01-30T14:40:57.831Z,1023.6
2023-01-30T14:43:02.274Z,1023.6
2023-01-30T14:44:56.597Z,1023.6
2023-01-30T14:46:58.294Z,1023.6
2023-01-30T14:48:59.034Z,1023.6
2023-01-30T14:51:00.779Z,1023.6
2023-01-30T14:52:58.002Z,1023.7
2023-01-30T14:54:56.540Z,1023.7
2023-01-30T14:56:56.532Z,1023.8
2023-01-30T14:58:56.559Z,1023.9
2023-01-30T15:00:56.715Z,1024
2023-01-30T15:02:57.818Z,1024.1
2023-01-30T15:04:57.999Z,1024.1
2023-01-30T15:06:56.520Z,1024
2023-01-30T15:08:56.778Z,1024
2023-01-30T15:10:56.576Z,1024
2023-01-30T15:12:56.694Z,1024.1
2023-01-30T15:14:56.478Z,1024.2
2023-01-30T15:16:56.622Z,1024.3
2023-01-30T15:18:56.545Z,1024.3
2023-01-30T15:21:04.294Z,1024.3
2023-01-30T15:22:56.624Z,1024.3
2023-01-30T15:25:19.177Z,1024.3
2023-01-30T15:26:56.717Z,1024.3
2023-01-30T15:28:41.194Z,1024.3
2023-01-30T15:28:56.583Z,1024.3
2023-01-30T15:30:56.760Z,1024.3
2023-01-30T15:32:59.260Z,1024.3
2023-01-30T15:35:00.876Z,1024.3
2023-01-30T15:36:56.545Z,1024.3
2023-01-30T15:39:18.993Z,1024.3
2023-01-30T15:41:19.128Z,1024.3
2023-01-30T15:43:28.546Z,1024.3
2023-01-30T15:45:02.903Z,1024.2
2023-01-30T15:46:56.513Z,1024.2
2023-01-30T15:48:56.485Z,1024.1
2023-01-30T15:50:58.068Z,1024.1
2023-01-30T15:53:19.115Z,1024
2023-01-30T15:55:10.701Z,1024
2023-01-30T15:56:56.583Z,1024
2023-01-30T15:58:57.759Z,1024
2023-01-30T16:00:58.028Z,1024
2023-01-30T16:02:56.554Z,1023.9
2023-01-30T16:05:04.248Z,1023.9
2023-01-30T16:06:57.997Z,1023.9
2023-01-30T16:07:53.442Z,1023.9
2023-01-30T16:08:42.578Z,1023.9
2023-01-30T16:10:41.591Z,1023.9
2023-01-30T16:12:45.630Z,1023.9
2023-01-30T16:15:18.656Z,1023.8
2023-01-30T16:16:41.518Z,1023.8
2023-01-30T16:18:41.413Z,1023.8
2023-01-30T16:20:55.213Z,1023.8
2023-01-30T16:22:41.447Z,1023.7
2023-01-30T16:24:43.457Z,1023.6
2023-01-30T16:26:41.506Z,1023.5
2023-01-30T16:28:41.465Z,1023.4
2023-01-30T16:30:43.996Z,1023.4
2023-01-30T16:32:41.424Z,1023.4
2023-01-30T16:34:41.396Z,1023.3
2023-01-30T16:36:45.716Z,1023.3
2023-01-30T16:38:47.544Z,1023.3
2023-01-30T16:40:41.476Z,1023.3
2023-01-30T16:42:41.425Z,1023.3
2023-01-30T16:44:42.850Z,1023.3
2023-01-30T16:46:41.584Z,1023.3
2023-01-30T16:48:42.702Z,1023.3
2023-01-30T16:50:41.423Z,1023.3
2023-01-30T16:52:45.862Z,1023.3
2023-01-30T16:54:41.455Z,1023.3
2023-01-30T16:56:41.536Z,1023.3
2023-01-30T16:58:41.480Z,1023.3
2023-01-30T17:00:42.665Z,1023.3
2023-01-30T17:02:41.576Z,1023.3
2023-01-30T17:04:41.503Z,1023.2
2023-01-30T17:06:41.504Z,1023.1
2023-01-30T17:08:41.432Z,1023.1
2023-01-30T17:10:49.227Z,1023.1
2023-01-30T17:12:45.723Z,1023
2023-01-30T17:14:43.903Z,1023
2023-01-30T17:16:44.171Z,1023
2023-01-30T17:19:14.187Z,1023
2023-01-30T17:25:50.797Z,1022.6
2023-01-30T17:27:53.678Z,1022.5
2023-01-30T17:29:42.662Z,1022.5
2023-01-30T17:32:21.200Z,1022.5
2023-01-30T17:34:05.762Z,1022.4
2023-01-30T17:35:38.726Z,1022.4
2023-01-30T17:38:06.460Z,1022.2
2023-01-30T17:39:43.191Z,1022.2
2023-01-30T17:42:06.348Z,1022.2
2023-01-30T17:43:38.741Z,1022.2
2023-01-30T17:45:40.720Z,1022.2
2023-01-30T17:47:38.757Z,1022.1
2023-01-30T17:49:38.655Z,1022.1
2023-01-30T17:51:38.633Z,1022.2
2023-01-30T17:54:12.342Z,1022.1
2023-01-30T17:55:48.825Z,1022.1
2023-01-30T17:56:30.458Z,1022.1
2023-01-30T17:58:01.015Z,1022
2023-01-30T17:59:43.010Z,1022
2023-01-30T18:01:38.795Z,1022
2023-01-30T18:03:40.852Z,1022
2023-01-30T18:06:07.450Z,1022
2023-01-30T18:07:39.799Z,1021.9
2023-01-30T18:09:39.875Z,1021.8
2023-01-30T18:12:25.599Z,1021.8
2023-01-30T18:13:40.176Z,1021.8
2023-01-30T18:15:03.107Z,1021.8
2023-01-30T18:16:07.328Z,1021.7
2023-01-30T18:17:41.631Z,1021.6
2023-01-30T18:20:21.920Z,1021.6
2023-01-30T18:21:53.407Z,1021.6
2023-01-30T18:23:50.076Z,1021.5
2023-01-30T18:25:42.954Z,1021.5
2023-01-30T18:28:01.372Z,1021.4
2023-01-30T18:29:39.786Z,1021.5
2023-01-30T18:31:04.777Z,1021.5
2023-01-30T18:33:03.943Z,1021.4
2023-01-30T18:33:39.235Z,1021.4
2023-01-30T18:34:36.396Z,1021.4
2023-01-30T18:36:33.940Z,1021.4
2023-01-30T18:37:52.015Z,1021.4
2023-01-30T18:38:33.842Z,1021.3
2023-01-30T18:41:08.854Z,1021.3
2023-01-30T18:42:44.430Z,1021.2
2023-01-30T18:44:48.081Z,1021.2
2023-01-30T18:47:25.376Z,1021.2
2023-01-30T18:47:55.352Z,1021.3
2023-01-30T18:48:25.411Z,1021.3
2023-01-30T18:49:33.033Z,1021.2
2023-01-30T18:52:07.403Z,1021.2
2023-01-30T18:52:40.661Z,1021.2
2023-01-30T18:54:13.323Z,1021.2
2023-01-30T18:54:36.508Z,1021.2
2023-01-30T18:56:37.660Z,1021.2
2023-01-30T18:58:36.496Z,1021.2
2023-01-30T19:00:36.398Z,1021.1
2023-01-30T19:02:37.018Z,1021.2
2023-01-30T19:04:42.422Z,1021.2
2023-01-30T19:06:36.427Z,1021.1
2023-01-30T19:08:36.465Z,1021.1
2023-01-30T19:10:36.515Z,1021.1
2023-01-30T19:12:37.802Z,1021.1
2023-01-30T19:14:36.516Z,1021.1
2023-01-30T19:16:36.783Z,1021.1
2023-01-30T19:18:36.446Z,1021.1
2023-01-30T19:20:36.422Z,1021.1
2023-01-30T19:22:36.439Z,1021.1
2023-01-30T19:24:37.914Z,1021.1
2023-01-30T19:26:36.481Z,1021.1
2023-01-30T19:28:46.820Z,1021.1
2023-01-30T19:31:01.519Z,1021.1
2023-01-30T19:32:36.499Z,1021.1
2023-01-30T19:34:36.500Z,1021.1
2023-01-30T19:36:36.388Z,1021.1
2023-01-30T19:38:37.731Z,1021.1
2023-01-30T19:41:04.626Z,1021.1
2023-01-30T19:42:42.465Z,1021
2023-01-30T19:44:42.790Z,1021
2023-01-30T19:46:36.475Z,1021
2023-01-30T19:48:13.568Z,1021
2023-01-30T19:48:36.548Z,1021
2023-01-30T19:50:37.694Z,1021
2023-01-30T19:52:36.473Z,1021.1
2023-01-30T19:54:36.488Z,1021
2023-01-30T19:56:47.110Z,1021
2023-01-30T19:58:50.670Z,1021
2023-01-30T20:00:43.196Z,1021
2023-01-30T20:02:36.399Z,1021
2023-01-30T20:04:36.351Z,1021
2023-01-30T20:06:36.405Z,1021
2023-01-30T20:08:40.621Z,1021.1
2023-01-30T20:10:36.337Z,1021.1
2023-01-30T20:12:41.867Z,1021.1
2023-01-30T20:14:40.452Z,1021.1
2023-01-30T20:16:38.835Z,1021.1
2023-01-30T20:18:36.490Z,1021.2
2023-01-30T20:20:36.468Z,1021.2
2023-01-30T20:22:36.355Z,1021.2
2023-01-30T20:24:37.668Z,1021.2
2023-01-30T20:26:38.912Z,1021.2
2023-01-30T20:28:36.403Z,1021.2
2023-01-30T20:30:36.451Z,1021.3
2023-01-30T20:32:36.377Z,1021.3
2023-01-30T20:34:37.833Z,1021.3
2023-01-30T20:36:47.006Z,1021.3
2023-01-30T20:38:38.950Z,1021.3
2023-01-30T20:40:36.313Z,1021.4
2023-01-30T20:42:36.513Z,1021.4
2023-01-30T20:44:36.609Z,1021.4
2023-01-30T20:46:36.413Z,1021.5
2023-01-30T20:48:36.377Z,1021.5
2023-01-30T20:50:36.415Z,1021.5
2023-01-30T20:52:36.433Z,1021.5
2023-01-30T20:54:37.548Z,1021.6
2023-01-30T20:56:38.262Z,1021.6
2023-01-30T20:58:36.426Z,1021.6
2023-01-30T21:00:36.368Z,1021.6
2023-01-30T21:02:37.023Z,1021.6
2023-01-30T21:04:36.324Z,1021.6
2023-01-30T21:06:45.657Z,1021.6
2023-01-30T21:08:36.692Z,1021.6
2023-01-30T21:11:02.312Z,1021.6
2023-01-30T21:12:36.870Z,1021.5
2023-01-30T21:14:36.963Z,1021.5
2023-01-30T21:16:37.001Z,1021.6
2023-01-30T21:19:04.072Z,1021.6
2023-01-30T21:20:36.742Z,1021.6
2023-01-30T21:22:36.926Z,1021.6
2023-01-30T21:23:02.232Z,1021.6
2023-01-30T21:24:38.073Z,1021.7
2023-01-30T21:26:39.431Z,1021.7
2023-01-30T21:28:36.866Z,1021.7
2023-01-30T21:30:40.896Z,1021.7
2023-01-30T21:32:39.142Z,1021.7
2023-01-30T21:34:50.692Z,1021.8
2023-01-30T21:36:37.956Z,1021.8
2023-01-30T21:38:39.168Z,1021.8
2023-01-30T21:40:50.637Z,1021.8
2023-01-30T21:42:36.741Z,1021.9
2023-01-30T21:44:54.195Z,1021.9
2023-01-30T21:46:36.615Z,1021.9
2023-01-30T21:48:41.708Z,1021.9
2023-01-30T21:50:37.524Z,1021.9
2023-01-30T21:52:36.781Z,1021.8
2023-01-30T21:54:46.770Z,1021.8
2023-01-30T21:56:36.747Z,1021.7
2023-01-30T21:59:02.423Z,1021.7
2023-01-30T22:00:37.684Z,1021.7
2023-01-30T22:02:36.517Z,1021.7
2023-01-30T22:04:40.691Z,1021.7
2023-01-30T22:06:37.792Z,1021.8
2023-01-30T22:08:50.758Z,1021.7
2023-01-30T22:11:05.645Z,1021.8
2023-01-30T22:12:36.479Z,1021.8
2023-01-30T22:14:37.532Z,1021.8
2023-01-30T22:16:38.885Z,1021.8
2023-01-30T22:18:42.200Z,1021.8
2023-01-30T22:19:54.865Z,1021.8
2023-01-30T22:20:37.719Z,1021.8
2023-01-30T22:23:02.374Z,1021.8
2023-01-30T22:24:36.315Z,1021.8
2023-01-30T22:26:36.631Z,1021.8
2023-01-30T22:27:26.352Z,1021.8
2023-01-30T22:28:46.917Z,1021.8
2023-01-30T22:31:09.703Z,1021.8
2023-01-30T22:32:36.353Z,1021.9
2023-01-30T22:34:36.825Z,1021.8
2023-01-30T22:36:36.348Z,1021.9
2023-01-30T22:38:42.348Z,1021.9
2023-01-30T22:40:37.608Z,1021.9
2023-01-30T22:42:41.849Z,1021.9
2023-01-30T22:44:36.259Z,1022
2023-01-30T22:46:40.859Z,1022
2023-01-30T22:49:05.788Z,1021.9
2023-01-30T22:50:36.179Z,1021.9
2023-01-30T22:52:38.406Z,1021.9
2023-01-30T22:54:38.175Z,1021.9
2023-01-30T22:56:59.061Z,1021.9
2023-01-30T22:58:36.203Z,1021.9
2023-01-30T23:01:06.389Z,1021.9
2023-01-30T23:01:57.969Z,1021.9
2023-01-30T23:02:38.223Z,1021.9
2023-01-30T23:03:11.223Z,1022
2023-01-30T23:05:12.131Z,1022
2023-01-30T23:07:11.549Z,1022.1
2023-01-30T23:09:11.117Z,1022.1
2023-01-30T23:11:10.050Z,1022.2
2023-01-30T23:13:09.998Z,1022.2
2023-01-30T23:15:10.306Z,1022.2
2023-01-30T23:17:10.101Z,1022.2
2023-01-30T23:19:10.039Z,1022.2
2023-01-30T23:21:09.978Z,1022.2
2023-01-30T23:23:11.999Z,1022.2
2023-01-30T23:25:15.942Z,1022.2
2023-01-30T23:27:11.212Z,1022.2
2023-01-30T23:29:14.226Z,1022.1
2023-01-30T23:31:10.178Z,1022.1
2023-01-30T23:33:11.129Z,1022.1
2023-01-30T23:35:10.253Z,1022.2
2023-01-30T23:37:10.027Z,1022.2
2023-01-30T23:39:10.054Z,1022.2
2023-01-30T23:41:09.905Z,1022.2
2023-01-30T23:43:09.895Z,1022.1
2023-01-30T23:45:09.894Z,1022.1
2023-01-30T23:47:09.864Z,1022.1
2023-01-30T23:49:09.900Z,1022.2
2023-01-30T23:51:10.056Z,1022.2
2023-01-30T23:53:09.895Z,1022.2
2023-01-30T23:55:12.512Z,1022.2
2023-01-30T23:57:09.872Z,1022.2
2023-01-30T23:59:09.926Z,1022.2
